createdAt,value
2019-02-16T00:01:48.883Z,93.20
2019-02-16T00:04:14.911Z,93.20
2019-02-16T00:06:40.915Z,93.10
2019-02-16T00:09:06.945Z,92.80
2019-02-16T00:11:32.955Z,93.00
2019-02-16T00:13:58.983Z,93.00
2019-02-16T00:16:24.999Z,93.10
2019-02-16T00:18:51.112Z,93.30
2019-02-16T00:21:17.125Z,93.30
2019-02-16T00:23:43.156Z,93.60
2019-02-16T00:26:09.169Z,93.30
2019-02-16T00:28:35.200Z,93.20
2019-02-16T00:31:01.212Z,93.00
2019-02-16T00:33:27.247Z,93.30
2019-02-16T00:35:53.263Z,93.10
2019-02-16T00:38:19.287Z,93.20
2019-02-16T00:40:45.300Z,93.70
2019-02-16T00:43:11.409Z,93.40
2019-02-16T00:45:37.423Z,93.30
2019-02-16T00:48:03.443Z,93.30
2019-02-16T00:50:29.483Z,93.50
2019-02-16T00:52:55.502Z,93.50
2019-02-16T00:55:21.528Z,93.70
2019-02-16T00:57:47.543Z,93.80
2019-02-16T01:00:13.877Z,94.00
2019-02-16T01:02:39.978Z,94.10
2019-02-16T01:05:06.009Z,94.60
2019-02-16T01:07:32.122Z,94.70
2019-02-16T01:09:58.152Z,94.70
2019-02-16T01:12:24.167Z,94.70
2019-02-16T01:14:50.195Z,95.10
2019-02-16T01:17:36.095Z,95.20
2019-02-16T01:20:05.147Z,95.30
2019-02-16T01:22:31.159Z,95.20
2019-02-16T01:24:57.196Z,95.20
2019-02-16T01:27:23.200Z,95.10
2019-02-16T01:29:49.231Z,95.10
2019-02-16T01:32:15.241Z,94.90
2019-02-16T01:34:41.284Z,94.90
2019-02-16T01:37:07.297Z,94.70
2019-02-16T01:39:33.331Z,94.40
2019-02-16T01:41:59.347Z,94.40
2019-02-16T01:44:25.483Z,94.30
2019-02-16T01:46:51.595Z,94.50
2019-02-16T01:49:17.627Z,94.60
2019-02-16T01:51:43.645Z,94.50
2019-02-16T01:54:09.679Z,94.60
2019-02-16T01:56:35.693Z,94.60
2019-02-16T01:59:01.732Z,94.80
2019-02-16T02:01:27.843Z,94.60
2019-02-16T02:03:53.879Z,94.50
2019-02-16T02:06:19.919Z,94.40
2019-02-16T02:08:46.054Z,94.40
2019-02-16T02:11:12.086Z,94.50
2019-02-16T02:13:38.099Z,94.40
2019-02-16T02:16:04.131Z,94.40
2019-02-16T02:18:30.162Z,94.40
2019-02-16T02:20:56.204Z,94.40
2019-02-16T02:23:22.221Z,94.30
2019-02-16T02:25:48.255Z,94.30
2019-02-16T02:28:14.263Z,94.40
2019-02-16T02:30:40.324Z,94.00
2019-02-16T02:33:06.342Z,94.20
2019-02-16T02:35:32.455Z,94.40
2019-02-16T02:37:58.467Z,94.40
2019-02-16T02:40:24.504Z,94.30
2019-02-16T02:42:50.516Z,94.30
2019-02-16T02:45:16.555Z,94.40
2019-02-16T02:47:42.596Z,94.30
2019-02-16T02:50:08.660Z,94.40
2019-02-16T02:52:34.800Z,94.30
2019-02-16T02:55:01.086Z,94.20
2019-02-16T02:57:27.095Z,94.20
2019-02-16T02:59:53.128Z,94.30
2019-02-16T03:02:19.149Z,94.30
2019-02-16T03:04:45.196Z,94.20
2019-02-16T03:07:11.203Z,94.20
2019-02-16T03:09:37.337Z,94.10
2019-02-16T03:12:03.405Z,94.20
2019-02-16T03:14:29.427Z,94.00
2019-02-16T03:16:55.452Z,94.10
2019-02-16T03:19:21.467Z,94.10
2019-02-16T03:21:47.513Z,94.20
2019-02-16T03:24:13.527Z,94.30
2019-02-16T03:27:03.316Z,94.90
2019-02-16T03:29:44.777Z,95.10
2019-02-16T03:32:45.005Z,95.40
2019-02-16T03:35:45.037Z,95.30
2019-02-16T03:38:17.481Z,95.70
2019-02-16T03:40:46.475Z,95.40
2019-02-16T03:43:12.509Z,94.90
2019-02-16T03:45:38.605Z,94.90
2019-02-16T03:48:04.644Z,95.30
2019-02-16T03:50:30.659Z,94.90
2019-02-16T03:52:56.687Z,94.90
2019-02-16T03:55:22.812Z,94.90
2019-02-16T03:57:48.841Z,94.90
2019-02-16T04:00:14.855Z,94.90
2019-02-16T04:02:40.894Z,94.90
2019-02-16T04:05:06.903Z,94.60
2019-02-16T04:07:32.940Z,94.70
2019-02-16T04:09:58.956Z,94.90
2019-02-16T04:12:25.010Z,94.80
2019-02-16T04:14:51.015Z,94.60
2019-02-16T04:17:17.065Z,94.70
2019-02-16T04:19:43.080Z,95.10
2019-02-16T04:22:09.108Z,94.90
2019-02-16T04:24:35.125Z,94.90
2019-02-16T04:27:01.155Z,94.80
2019-02-16T04:29:27.171Z,94.50
2019-02-16T04:31:53.228Z,94.60
2019-02-16T04:34:19.252Z,94.50
2019-02-16T04:36:45.282Z,94.30
2019-02-16T04:39:11.301Z,94.20
2019-02-16T04:41:37.328Z,94.30
2019-02-16T04:44:03.352Z,94.50
2019-02-16T04:46:29.456Z,94.50
2019-02-16T04:48:55.468Z,94.50
2019-02-16T04:51:21.504Z,94.30
2019-02-16T04:53:47.516Z,94.40
2019-02-16T04:56:13.551Z,94.60
2019-02-16T04:58:39.566Z,94.50
2019-02-16T05:01:05.579Z,94.50
2019-02-16T05:03:31.612Z,94.40
2019-02-16T05:05:59.688Z,94.50
2019-02-16T05:08:25.572Z,94.70
2019-02-16T05:10:51.591Z,94.60
2019-02-16T05:13:17.646Z,94.50
2019-02-16T05:16:03.664Z,94.60
2019-02-16T05:18:29.696Z,94.60
2019-02-16T05:20:55.713Z,94.60
2019-02-16T05:23:21.745Z,94.50
2019-02-16T05:25:47.799Z,94.50
2019-02-16T05:28:13.843Z,94.50
2019-02-16T05:30:39.859Z,94.90
2019-02-16T05:33:05.891Z,95.20
2019-02-16T05:35:31.908Z,95.40
2019-02-16T05:37:58.044Z,95.80
2019-02-16T05:40:24.055Z,95.40
2019-02-16T05:42:50.103Z,95.50
2019-02-16T05:45:16.419Z,95.30
2019-02-16T05:47:42.451Z,94.90
2019-02-16T05:50:08.463Z,94.70
2019-02-16T05:52:34.495Z,94.80
2019-02-16T05:55:00.512Z,94.80
2019-02-16T05:57:26.560Z,94.60
2019-02-16T05:59:52.580Z,94.80
2019-02-16T06:02:18.607Z,94.80
2019-02-16T06:04:44.624Z,94.80
2019-02-16T06:07:10.667Z,94.90
2019-02-16T06:09:36.700Z,95.00
2019-02-16T06:12:02.752Z,95.00
2019-02-16T06:14:28.763Z,95.20
2019-02-16T06:16:54.797Z,95.20
2019-02-16T06:19:20.813Z,95.30
2019-02-16T06:21:47.069Z,95.60
2019-02-16T06:24:13.256Z,95.20
2019-02-16T06:26:39.358Z,95.00
2019-02-16T06:29:05.388Z,94.90
2019-02-16T06:31:31.404Z,95.10
2019-02-16T06:33:57.430Z,95.00
2019-02-16T06:36:25.358Z,95.00
2019-02-16T06:38:51.381Z,95.10
2019-02-16T06:41:17.415Z,95.00
2019-02-16T06:43:43.460Z,95.00
2019-02-16T06:46:09.586Z,94.90
2019-02-16T06:48:35.620Z,94.60
2019-02-16T06:51:01.628Z,94.50
2019-02-16T06:53:27.656Z,94.50
2019-02-16T06:55:55.576Z,94.50
2019-02-16T06:58:21.607Z,94.60
2019-02-16T07:00:47.619Z,94.50
2019-02-16T07:03:13.647Z,94.70
2019-02-16T07:05:39.664Z,94.40
2019-02-16T07:08:25.572Z,94.40
2019-02-16T07:10:51.585Z,94.40
2019-02-16T07:13:17.635Z,94.20
2019-02-16T07:15:45.552Z,94.10
2019-02-16T07:18:22.585Z,94.00
2019-02-16T07:20:48.595Z,93.90
2019-02-16T07:23:22.221Z,94.00
2019-02-16T07:25:42.583Z,93.90
2019-02-16T07:28:08.621Z,93.80
2019-02-16T07:30:34.634Z,93.80
2019-02-16T07:33:01.006Z,93.80
2019-02-16T07:35:27.036Z,93.40
2019-02-16T07:37:53.096Z,93.60
2019-02-16T07:40:19.191Z,93.20
2019-02-16T07:42:52.146Z,93.30
2019-02-16T07:45:28.085Z,93.30
2019-02-16T07:48:01.992Z,93.10
2019-02-16T07:50:29.907Z,92.80
2019-02-16T07:52:57.829Z,92.90
2019-02-16T07:55:28.584Z,92.70
2019-02-16T07:57:56.512Z,92.40
2019-02-16T08:00:27.403Z,92.40
2019-02-16T08:03:07.771Z,92.60
2019-02-16T08:05:35.692Z,92.90
2019-02-16T08:08:24.943Z,92.80
2019-02-16T08:10:52.864Z,92.80
2019-02-16T08:13:23.599Z,92.80
2019-02-16T08:16:07.971Z,92.60
2019-02-16T08:18:48.035Z,92.40
2019-02-16T08:21:15.946Z,92.50
2019-02-16T08:23:49.663Z,92.20
2019-02-16T08:26:17.592Z,92.30
2019-02-16T08:28:45.524Z,92.00
2019-02-16T08:31:13.445Z,92.10
2019-02-16T08:33:43.902Z,92.20
2019-02-16T08:36:20.662Z,92.20
2019-02-16T08:38:54.199Z,92.10
2019-02-16T08:41:38.803Z,92.00
2019-02-16T08:44:16.836Z,92.00
2019-02-16T08:46:47.462Z,91.90
2019-02-16T08:49:15.402Z,91.60
2019-02-16T08:51:46.324Z,91.50
2019-02-16T08:54:26.108Z,91.40
2019-02-16T08:57:03.101Z,91.30
2019-02-16T08:59:42.914Z,91.20
2019-02-16T09:02:13.979Z,91.00
2019-02-16T09:04:58.411Z,90.80
2019-02-16T09:07:42.618Z,90.60
2019-02-16T09:10:16.626Z,90.60
2019-02-16T09:12:50.589Z,90.90
2019-02-16T09:15:24.379Z,90.50
2019-02-16T09:18:01.173Z,90.40
2019-02-16T09:20:29.124Z,90.10
2019-02-16T09:23:14.103Z,89.90
2019-02-16T09:25:42.063Z,89.20
2019-02-16T09:28:09.979Z,88.50
2019-02-16T09:30:52.904Z,88.40
2019-02-16T09:33:23.720Z,88.50
2019-02-16T09:35:51.781Z,88.40
2019-02-16T09:38:22.678Z,88.30
2019-02-16T09:41:08.663Z,88.00
2019-02-16T09:43:53.232Z,87.60
2019-02-16T09:46:26.521Z,87.70
2019-02-16T09:49:00.216Z,87.20
2019-02-16T09:51:43.031Z,86.70
2019-02-16T09:54:13.840Z,86.70
2019-02-16T09:56:41.755Z,86.50
2019-02-16T09:59:09.676Z,86.00
2019-02-16T10:01:40.801Z,85.60
2019-02-16T10:04:08.735Z,84.80
2019-02-16T10:06:51.462Z,84.70
2019-02-16T10:09:22.371Z,84.30
2019-02-16T10:11:59.129Z,84.00
2019-02-16T10:17:13.073Z,83.00
2019-02-16T10:20:03.832Z,82.20
2019-02-16T10:22:31.852Z,82.00
2019-02-16T10:24:59.819Z,82.00
2019-02-16T10:27:27.831Z,81.30
2019-02-16T10:30:04.896Z,80.70
2019-02-16T10:32:47.653Z,80.60
2019-02-16T10:35:21.444Z,78.80
2019-02-16T10:37:57.908Z,77.80
2019-02-16T10:40:37.944Z,77.50
2019-02-16T10:43:11.896Z,77.30
2019-02-16T10:45:45.416Z,77.20
2019-02-16T10:48:25.371Z,76.90
2019-02-16T10:50:56.111Z,76.40
2019-02-16T10:53:32.623Z,76.00
2019-02-16T10:56:01.195Z,75.10
2019-02-16T10:58:31.916Z,74.30
2019-02-16T11:01:05.435Z,74.50
2019-02-16T11:03:48.419Z,73.70
2019-02-16T11:06:33.017Z,72.40
2019-02-16T11:09:01.113Z,71.40
2019-02-16T11:11:29.087Z,72.10
2019-02-16T11:14:15.823Z,71.40
2019-02-16T11:16:49.792Z,70.80
2019-02-16T11:19:26.842Z,70.50
2019-02-16T11:22:02.013Z,70.80
2019-02-16T11:24:35.976Z,69.90
2019-02-16T11:27:08.100Z,69.20
2019-02-16T11:29:45.217Z,69.70
2019-02-16T11:32:13.140Z,69.30
2019-02-16T11:34:43.662Z,67.80
2019-02-16T11:37:17.521Z,68.10
2019-02-16T11:39:54.011Z,67.30
2019-02-16T11:42:35.457Z,67.10
2019-02-16T11:45:03.382Z,67.40
2019-02-16T11:47:47.704Z,67.70
2019-02-16T11:50:30.771Z,67.40
2019-02-16T11:53:15.633Z,68.30
2019-02-16T11:55:43.564Z,68.00
2019-02-16T11:58:11.488Z,66.10
2019-02-16T12:00:40.238Z,65.70
2019-02-16T12:03:08.507Z,66.60
2019-02-16T12:05:47.519Z,65.70
2019-02-16T12:08:18.583Z,64.00
2019-02-16T12:10:52.599Z,64.00
2019-02-16T12:13:29.953Z,64.50
2019-02-16T12:16:06.832Z,64.30
2019-02-16T12:21:40.090Z,62.80
2019-02-16T12:24:08.036Z,63.10
2019-02-16T12:26:52.919Z,63.30
2019-02-16T12:29:39.045Z,63.10
2019-02-16T12:32:12.867Z,63.00
2019-02-16T12:34:57.616Z,62.40
2019-02-16T12:40:30.652Z,63.00
2019-02-16T12:43:15.760Z,62.80
2019-02-16T12:45:50.924Z,62.40
2019-02-16T12:48:22.616Z,62.10
2019-02-16T12:50:56.833Z,63.60
2019-02-16T12:53:41.792Z,63.90
2019-02-16T12:56:12.528Z,61.40
2019-02-16T12:58:40.554Z,62.60
2019-02-16T13:01:11.344Z,62.60
2019-02-16T13:03:39.284Z,61.00
2019-02-16T13:06:07.313Z,60.70
2019-02-16T13:08:51.969Z,60.60
2019-02-16T13:11:19.903Z,59.70
2019-02-16T13:13:53.627Z,58.60
2019-02-16T13:16:41.453Z,59.00
2019-02-16T13:19:12.103Z,59.80
2019-02-16T13:21:42.820Z,60.80
2019-02-16T13:24:13.771Z,59.40
2019-02-16T13:26:47.723Z,60.00
2019-02-16T13:29:18.695Z,59.50
2019-02-16T13:31:55.259Z,60.00
2019-02-16T13:34:23.243Z,60.30
2019-02-16T13:36:54.224Z,59.90
2019-02-16T13:39:38.804Z,59.80
2019-02-16T13:42:06.751Z,59.80
2019-02-16T13:44:37.448Z,60.50
2019-02-16T13:47:08.024Z,60.70
2019-02-16T13:49:37.599Z,60.10
2019-02-16T13:52:11.076Z,59.80
2019-02-16T13:54:47.639Z,60.00
2019-02-16T13:57:24.809Z,60.10
2019-02-16T13:59:52.839Z,59.40
2019-02-16T14:02:20.808Z,59.40
2019-02-16T14:05:05.491Z,59.50
2019-02-16T14:07:36.279Z,59.40
2019-02-16T14:10:07.891Z,60.00
2019-02-16T14:12:52.316Z,59.70
2019-02-16T14:15:20.576Z,60.50
2019-02-16T14:17:46.688Z,60.00
2019-02-16T14:20:12.703Z,59.90
2019-02-16T14:22:38.752Z,59.20
2019-02-16T14:25:06.268Z,59.80
2019-02-16T14:27:32.320Z,60.90
2019-02-16T14:29:58.337Z,60.40
2019-02-16T14:32:24.400Z,60.90
2019-02-16T14:34:50.407Z,60.40
2019-02-16T14:37:33.129Z,61.40
2019-02-16T14:39:59.148Z,61.20
2019-02-16T14:42:25.183Z,61.60
2019-02-16T14:44:51.199Z,61.20
2019-02-16T14:47:17.214Z,61.20
2019-02-16T14:49:43.265Z,61.70
2019-02-16T14:52:09.279Z,61.40
2019-02-16T14:54:35.321Z,61.90
2019-02-16T14:57:01.337Z,62.50
2019-02-16T14:59:27.380Z,62.30
2019-02-16T15:01:53.426Z,62.50
2019-02-16T15:04:19.478Z,62.40
2019-02-16T15:06:45.490Z,64.40
2019-02-16T15:09:11.527Z,63.40
2019-02-16T15:11:37.567Z,63.60
2019-02-16T15:14:03.613Z,63.50
2019-02-16T15:16:29.623Z,63.10
2019-02-16T15:18:55.658Z,63.70
2019-02-16T15:21:21.678Z,64.00
2019-02-16T15:23:47.731Z,64.40
2019-02-16T15:26:13.743Z,64.40
2019-02-16T15:28:39.819Z,63.40
2019-02-16T15:31:05.923Z,64.00
2019-02-16T15:33:31.968Z,63.80
2019-02-16T15:35:58.012Z,64.20
2019-02-16T15:38:24.055Z,64.30
2019-02-16T15:40:50.073Z,64.50
2019-02-16T15:43:16.132Z,65.50
2019-02-16T15:45:42.152Z,65.20
2019-02-16T15:48:08.191Z,67.30
2019-02-16T15:50:34.236Z,65.80
2019-02-16T15:53:00.276Z,65.70
2019-02-16T15:55:26.317Z,66.90
2019-02-16T15:57:52.345Z,66.80
2019-02-16T16:00:23.018Z,66.00
2019-02-16T16:02:49.052Z,70.20
2019-02-16T16:05:15.092Z,69.40
2019-02-16T16:07:43.615Z,67.50
2019-02-16T16:10:14.349Z,68.60
2019-02-16T16:12:42.269Z,67.50
2019-02-16T16:15:22.288Z,68.70
2019-02-16T16:17:55.999Z,69.00
2019-02-16T16:20:23.944Z,70.10
2019-02-16T16:23:00.504Z,70.40
2019-02-16T16:25:33.994Z,70.90
2019-02-16T16:28:07.760Z,71.80
2019-02-16T16:30:35.705Z,71.30
2019-02-16T16:33:15.741Z,71.00
2019-02-16T16:35:46.582Z,71.90
2019-02-16T16:38:26.587Z,71.60
2019-02-16T16:40:57.271Z,72.60
2019-02-16T16:46:20.844Z,73.20
2019-02-16T16:49:11.404Z,74.30
2019-02-16T16:51:48.525Z,75.90
2019-02-16T16:54:19.068Z,76.90
2019-02-16T16:57:03.682Z,77.70
2019-02-16T16:59:35.345Z,77.10
2019-02-16T17:02:03.415Z,76.80
2019-02-16T17:04:34.127Z,77.20
2019-02-16T17:07:24.777Z,77.00
2019-02-16T17:09:52.954Z,79.10
2019-02-16T17:12:34.644Z,80.80
2019-02-16T17:14:56.495Z,81.70
2019-02-16T17:17:34.530Z,82.10
2019-02-16T17:20:19.119Z,81.90
2019-02-16T17:23:03.463Z,81.60
2019-02-16T17:25:43.347Z,81.80
2019-02-16T17:28:16.891Z,82.30
2019-02-16T17:30:47.656Z,82.90
2019-02-16T17:33:15.572Z,83.10
2019-02-16T17:35:53.336Z,82.90
2019-02-16T17:38:21.263Z,82.80
2019-02-16T17:41:07.808Z,83.00
2019-02-16T17:43:52.032Z,83.00
2019-02-16T17:46:36.825Z,84.10
2019-02-16T17:49:07.626Z,85.50
2019-02-16T17:51:35.544Z,85.20
2019-02-16T17:54:08.480Z,85.70
2019-02-16T17:56:35.877Z,86.90
2019-02-16T17:59:03.801Z,86.50
2019-02-16T18:01:31.743Z,87.10
2019-02-16T18:03:59.664Z,87.90
2019-02-16T18:06:30.392Z,88.30
2019-02-16T18:09:13.543Z,89.00
2019-02-16T18:11:41.514Z,89.60
2019-02-16T18:14:09.436Z,89.60
2019-02-16T18:16:38.707Z,90.10
2019-02-16T18:19:06.732Z,90.10
2019-02-16T18:21:34.676Z,90.00
2019-02-16T18:24:02.595Z,90.40
2019-02-16T18:26:33.089Z,90.40
2019-02-16T18:29:07.091Z,90.50
2019-02-16T18:31:50.263Z,90.80
2019-02-16T18:34:23.808Z,90.90
2019-02-16T18:36:54.359Z,90.90
2019-02-16T18:39:28.201Z,90.80
2019-02-16T18:42:11.239Z,90.80
2019-02-16T18:44:39.219Z,90.90
2019-02-16T18:47:07.151Z,91.00
2019-02-16T18:49:44.420Z,91.10
2019-02-16T18:52:18.407Z,90.70
2019-02-16T18:54:46.390Z,90.70
2019-02-16T18:57:22.903Z,90.90
2019-02-16T18:59:56.678Z,91.30
2019-02-16T19:02:42.354Z,91.30
2019-02-16T19:05:10.589Z,91.30
2019-02-16T19:07:44.414Z,91.50
2019-02-16T19:10:14.964Z,91.70
2019-02-16T19:12:59.525Z,91.50
2019-02-16T19:15:39.764Z,91.50
2019-02-16T19:18:07.700Z,91.60
2019-02-16T19:20:38.664Z,91.80
2019-02-16T19:23:23.051Z,91.90
2019-02-16T19:25:50.991Z,92.00
2019-02-16T19:28:18.911Z,91.80
2019-02-16T19:30:46.860Z,92.00
2019-02-16T19:33:17.287Z,92.00
2019-02-16T19:36:01.443Z,92.40
2019-02-16T19:41:26.012Z,92.50
2019-02-16T19:43:56.423Z,92.40
2019-02-16T19:46:30.179Z,92.40
2019-02-16T19:49:07.431Z,92.40
2019-02-16T19:51:38.517Z,92.30
2019-02-16T19:54:15.499Z,92.40
2019-02-16T19:56:55.528Z,92.50
2019-02-16T19:59:26.497Z,92.80
2019-02-16T20:10:08.184Z,92.60
2019-02-16T20:12:48.141Z,92.80
2019-02-16T20:15:33.105Z,93.10
2019-02-16T20:18:17.514Z,92.90
2019-02-16T20:21:02.233Z,93.10
2019-02-16T20:23:30.163Z,93.20
2019-02-16T20:26:01.219Z,93.40
2019-02-16T20:28:47.331Z,93.30
2019-02-16T20:31:15.295Z,93.40
2019-02-16T20:33:59.610Z,93.50
2019-02-16T20:36:27.614Z,93.60
2019-02-16T20:39:01.295Z,93.60
2019-02-16T20:41:29.275Z,93.20
2019-02-16T20:44:13.803Z,93.20
2019-02-16T20:46:53.793Z,93.20
2019-02-16T20:49:21.696Z,93.20
2019-02-16T20:52:01.482Z,93.30
2019-02-16T20:54:29.464Z,93.60
2019-02-16T21:14:24.203Z,93.70
2019-02-16T22:00:30.897Z,93.80
2019-02-16T22:03:07.849Z,93.90
2019-02-16T22:05:35.787Z,93.90
2019-02-16T22:08:12.600Z,94.10
2019-02-16T22:10:43.485Z,94.00
2019-02-16T22:13:09.556Z,93.80
2019-02-16T22:15:35.567Z,93.70
2019-02-16T22:18:02.059Z,93.70
2019-02-16T22:20:47.980Z,93.70
2019-02-16T22:23:13.987Z,93.50
2019-02-16T22:25:40.033Z,93.60
2019-02-16T22:28:06.064Z,93.60
2019-02-16T22:30:32.075Z,93.60
2019-02-16T22:32:58.127Z,93.70
2019-02-16T22:35:24.159Z,94.00
2019-02-16T22:37:50.319Z,94.30
2019-02-16T22:40:16.327Z,94.60
2019-02-16T22:42:42.382Z,94.50
2019-02-16T22:45:10.101Z,94.50
2019-02-16T22:47:36.511Z,94.20
2019-02-16T22:50:05.318Z,94.20
2019-02-16T22:52:31.355Z,94.50
2019-02-16T22:54:57.396Z,94.90
2019-02-16T22:57:23.505Z,94.80
2019-02-16T22:59:49.520Z,94.60
2019-02-16T23:02:15.649Z,94.40
2019-02-16T23:04:41.715Z,94.50
2019-02-16T23:07:07.751Z,94.70
2019-02-16T23:09:33.764Z,94.80
2019-02-16T23:11:59.799Z,94.70
2019-02-16T23:14:26.509Z,94.40
2019-02-16T23:16:52.643Z,94.40
2019-02-16T23:19:18.718Z,94.90
2019-02-16T23:21:44.820Z,94.90
2019-02-16T23:24:10.941Z,94.80
2019-02-16T23:26:36.964Z,94.70
2019-02-16T23:29:03.274Z,95.10
2019-02-16T23:31:29.282Z,95.20
2019-02-16T23:33:55.316Z,95.10
2019-02-16T23:36:21.335Z,94.90
2019-02-16T23:38:47.372Z,94.50
2019-02-16T23:41:13.384Z,94.60
2019-02-16T23:43:40.600Z,94.70
2019-02-16T23:46:06.738Z,94.70
2019-02-16T23:48:32.891Z,94.60
2019-02-16T23:50:58.903Z,94.60
2019-02-16T23:53:24.939Z,95.40
2019-02-16T23:55:51.027Z,94.80
2019-02-16T23:58:17.067Z,95.10
